sensor_id;sensor_type;location;lat;lon;timestamp;P1;durP1;ratioP1;P2;durP2;ratioP2
24685;SDS011;12804;51.176;4.452;2023-03-19T00:01:54;3.42;;;1.75;;
24685;SDS011;12804;51.176;4.452;2023-03-19T00:04:20;3.15;;;1.90;;
24685;SDS011;12804;51.176;4.452;2023-03-19T00:06:48;3.35;;;1.70;;
24685;SDS011;12804;51.176;4.452;2023-03-19T00:09:14;3.25;;;1.90;;
24685;SDS011;12804;51.176;4.452;2023-03-19T00:11:41;3.53;;;1.98;;
24685;SDS011;12804;51.176;4.452;2023-03-19T00:14:07;2.20;;;1.65;;
24685;SDS011;12804;51.176;4.452;2023-03-19T00:16:33;3.05;;;1.80;;
24685;SDS011;12804;51.176;4.452;2023-03-19T00:18:59;3.65;;;1.83;;
24685;SDS011;12804;51.176;4.452;2023-03-19T00:21:25;3.53;;;2.00;;
24685;SDS011;12804;51.176;4.452;2023-03-19T00:23:51;2.25;;;1.75;;
24685;SDS011;12804;51.176;4.452;2023-03-19T00:26:17;2.15;;;1.92;;
24685;SDS011;12804;51.176;4.452;2023-03-19T00:28:44;3.53;;;2.40;;
24685;SDS011;12804;51.176;4.452;2023-03-19T00:31:14;4.30;;;2.47;;
24685;SDS011;12804;51.176;4.452;2023-03-19T00:33:41;3.95;;;1.98;;
24685;SDS011;12804;51.176;4.452;2023-03-19T00:36:07;3.45;;;2.20;;
24685;SDS011;12804;51.176;4.452;2023-03-19T00:38:34;4.13;;;2.40;;
24685;SDS011;12804;51.176;4.452;2023-03-19T00:41:01;3.58;;;2.35;;
24685;SDS011;12804;51.176;4.452;2023-03-19T00:43:29;2.72;;;2.40;;
24685;SDS011;12804;51.176;4.452;2023-03-19T00:45:56;3.47;;;2.28;;
24685;SDS011;12804;51.176;4.452;2023-03-19T00:48:22;4.70;;;2.78;;
24685;SDS011;12804;51.176;4.452;2023-03-19T00:50:48;4.55;;;2.78;;
24685;SDS011;12804;51.176;4.452;2023-03-19T00:53:15;4.28;;;3.13;;
24685;SDS011;12804;51.176;4.452;2023-03-19T00:55:41;4.85;;;3.00;;
24685;SDS011;12804;51.176;4.452;2023-03-19T00:58:07;4.63;;;2.95;;
24685;SDS011;12804;51.176;4.452;2023-03-19T01:00:34;7.47;;;3.58;;
24685;SDS011;12804;51.176;4.452;2023-03-19T01:03:01;4.63;;;3.70;;
24685;SDS011;12804;51.176;4.452;2023-03-19T01:05:28;5.47;;;3.80;;
24685;SDS011;12804;51.176;4.452;2023-03-19T01:07:55;5.75;;;3.90;;
24685;SDS011;12804;51.176;4.452;2023-03-19T01:10:21;3.95;;;3.55;;
24685;SDS011;12804;51.176;4.452;2023-03-19T01:12:48;7.53;;;4.05;;
24685;SDS011;12804;51.176;4.452;2023-03-19T01:15:15;5.82;;;4.05;;
24685;SDS011;12804;51.176;4.452;2023-03-19T01:17:41;6.00;;;4.05;;
24685;SDS011;12804;51.176;4.452;2023-03-19T01:20:08;6.05;;;4.68;;
24685;SDS011;12804;51.176;4.452;2023-03-19T01:22:40;5.50;;;4.32;;
24685;SDS011;12804;51.176;4.452;2023-03-19T01:25:08;5.43;;;4.35;;
24685;SDS011;12804;51.176;4.452;2023-03-19T01:27:38;7.57;;;4.72;;
24685;SDS011;12804;51.176;4.452;2023-03-19T01:30:05;6.32;;;4.35;;
24685;SDS011;12804;51.176;4.452;2023-03-19T01:32:50;5.65;;;4.75;;
24685;SDS011;12804;51.176;4.452;2023-03-19T01:35:48;8.15;;;5.03;;
24685;SDS011;12804;51.176;4.452;2023-03-19T01:38:17;8.23;;;4.82;;
24685;SDS011;12804;51.176;4.452;2023-03-19T01:40:45;6.00;;;4.53;;
24685;SDS011;12804;51.176;4.452;2023-03-19T01:43:17;5.65;;;4.88;;
24685;SDS011;12804;51.176;4.452;2023-03-19T01:45:54;5.75;;;4.90;;
24685;SDS011;12804;51.176;4.452;2023-03-19T01:48:48;5.43;;;4.63;;
24685;SDS011;12804;51.176;4.452;2023-03-19T01:51:28;7.45;;;5.18;;
24685;SDS011;12804;51.176;4.452;2023-03-19T01:54:22;5.22;;;4.70;;
24685;SDS011;12804;51.176;4.452;2023-03-19T01:57:25;7.35;;;5.32;;
24685;SDS011;12804;51.176;4.452;2023-03-19T02:00:23;7.43;;;5.20;;
24685;SDS011;12804;51.176;4.452;2023-03-19T02:02:52;6.32;;;5.18;;
24685;SDS011;12804;51.176;4.452;2023-03-19T02:05:40;6.82;;;5.10;;
24685;SDS011;12804;51.176;4.452;2023-03-19T02:08:13;8.35;;;5.07;;
24685;SDS011;12804;51.176;4.452;2023-03-19T02:10:41;7.43;;;5.65;;
24685;SDS011;12804;51.176;4.452;2023-03-19T02:13:08;6.38;;;5.05;;
24685;SDS011;12804;51.176;4.452;2023-03-19T02:15:34;8.77;;;5.55;;
24685;SDS011;12804;51.176;4.452;2023-03-19T02:18:00;7.15;;;5.60;;
24685;SDS011;12804;51.176;4.452;2023-03-19T02:20:31;6.45;;;5.75;;
24685;SDS011;12804;51.176;4.452;2023-03-19T02:28:35;8.38;;;6.30;;
24685;SDS011;12804;51.176;4.452;2023-03-19T02:31:05;7.22;;;5.97;;
24685;SDS011;12804;51.176;4.452;2023-03-19T02:33:31;6.63;;;5.90;;
24685;SDS011;12804;51.176;4.452;2023-03-19T02:35:58;7.53;;;5.97;;
24685;SDS011;12804;51.176;4.452;2023-03-19T02:38:25;8.10;;;6.00;;
24685;SDS011;12804;51.176;4.452;2023-03-19T02:41:02;9.02;;;6.25;;
24685;SDS011;12804;51.176;4.452;2023-03-19T02:43:31;10.48;;;6.25;;
24685;SDS011;12804;51.176;4.452;2023-03-19T02:45:59;7.07;;;6.28;;
24685;SDS011;12804;51.176;4.452;2023-03-19T02:48:26;7.35;;;5.50;;
24685;SDS011;12804;51.176;4.452;2023-03-19T02:50:52;8.30;;;6.00;;
24685;SDS011;12804;51.176;4.452;2023-03-19T02:53:19;7.78;;;6.40;;
24685;SDS011;12804;51.176;4.452;2023-03-19T02:55:45;6.13;;;5.50;;
24685;SDS011;12804;51.176;4.452;2023-03-19T02:58:11;6.75;;;6.00;;
24685;SDS011;12804;51.176;4.452;2023-03-19T03:00:38;7.05;;;6.22;;
24685;SDS011;12804;51.176;4.452;2023-03-19T03:03:04;6.03;;;5.43;;
24685;SDS011;12804;51.176;4.452;2023-03-19T03:05:32;7.95;;;6.38;;
24685;SDS011;12804;51.176;4.452;2023-03-19T03:07:58;8.20;;;6.55;;
24685;SDS011;12804;51.176;4.452;2023-03-19T03:10:25;7.43;;;6.13;;
24685;SDS011;12804;51.176;4.452;2023-03-19T03:12:52;6.55;;;5.88;;
24685;SDS011;12804;51.176;4.452;2023-03-19T03:15:17;7.90;;;5.93;;
24685;SDS011;12804;51.176;4.452;2023-03-19T03:17:44;8.35;;;6.78;;
24685;SDS011;12804;51.176;4.452;2023-03-19T03:20:10;8.50;;;6.40;;
24685;SDS011;12804;51.176;4.452;2023-03-19T03:22:38;10.68;;;6.60;;
24685;SDS011;12804;51.176;4.452;2023-03-19T03:25:04;7.43;;;6.13;;
24685;SDS011;12804;51.176;4.452;2023-03-19T03:27:31;6.40;;;5.60;;
24685;SDS011;12804;51.176;4.452;2023-03-19T03:29:57;7.05;;;5.85;;
24685;SDS011;12804;51.176;4.452;2023-03-19T03:32:23;10.85;;;6.10;;
24685;SDS011;12804;51.176;4.452;2023-03-19T03:34:49;7.65;;;6.38;;
24685;SDS011;12804;51.176;4.452;2023-03-19T03:37:15;7.53;;;6.30;;
24685;SDS011;12804;51.176;4.452;2023-03-19T03:39:41;9.50;;;6.75;;
24685;SDS011;12804;51.176;4.452;2023-03-19T03:42:07;10.40;;;6.65;;
24685;SDS011;12804;51.176;4.452;2023-03-19T03:44:34;8.50;;;6.40;;
24685;SDS011;12804;51.176;4.452;2023-03-19T03:47:00;11.25;;;8.05;;
24685;SDS011;12804;51.176;4.452;2023-03-19T03:49:27;13.80;;;8.60;;
24685;SDS011;12804;51.176;4.452;2023-03-19T03:51:54;10.27;;;7.45;;
24685;SDS011;12804;51.176;4.452;2023-03-19T03:54:20;8.98;;;7.13;;
24685;SDS011;12804;51.176;4.452;2023-03-19T03:56:46;11.77;;;8.63;;
24685;SDS011;12804;51.176;4.452;2023-03-19T03:59:14;11.10;;;8.80;;
24685;SDS011;12804;51.176;4.452;2023-03-19T04:01:40;11.90;;;8.43;;
24685;SDS011;12804;51.176;4.452;2023-03-19T04:04:06;10.90;;;7.13;;
24685;SDS011;12804;51.176;4.452;2023-03-19T04:06:33;10.57;;;7.25;;
24685;SDS011;12804;51.176;4.452;2023-03-19T04:09:19;11.02;;;6.90;;
24685;SDS011;12804;51.176;4.452;2023-03-19T04:11:46;9.98;;;6.97;;
24685;SDS011;12804;51.176;4.452;2023-03-19T04:14:11;13.02;;;7.20;;
24685;SDS011;12804;51.176;4.452;2023-03-19T04:16:38;7.60;;;6.15;;
24685;SDS011;12804;51.176;4.452;2023-03-19T04:19:04;9.05;;;6.55;;
24685;SDS011;12804;51.176;4.452;2023-03-19T04:21:31;11.20;;;7.10;;
24685;SDS011;12804;51.176;4.452;2023-03-19T04:23:57;8.38;;;6.68;;
24685;SDS011;12804;51.176;4.452;2023-03-19T04:26:24;9.30;;;7.07;;
24685;SDS011;12804;51.176;4.452;2023-03-19T04:28:49;10.25;;;7.28;;
24685;SDS011;12804;51.176;4.452;2023-03-19T04:31:15;10.70;;;7.07;;
24685;SDS011;12804;51.176;4.452;2023-03-19T04:33:42;10.27;;;6.80;;
24685;SDS011;12804;51.176;4.452;2023-03-19T04:36:09;9.52;;;6.82;;
24685;SDS011;12804;51.176;4.452;2023-03-19T04:38:37;11.13;;;7.32;;
24685;SDS011;12804;51.176;4.452;2023-03-19T04:41:03;9.30;;;6.47;;
24685;SDS011;12804;51.176;4.452;2023-03-19T04:43:32;9.75;;;6.75;;
24685;SDS011;12804;51.176;4.452;2023-03-19T04:46:00;9.40;;;6.68;;
24685;SDS011;12804;51.176;4.452;2023-03-19T04:48:26;12.27;;;8.98;;
24685;SDS011;12804;51.176;4.452;2023-03-19T04:50:52;7.78;;;6.47;;
24685;SDS011;12804;51.176;4.452;2023-03-19T04:53:21;9.52;;;6.18;;
24685;SDS011;12804;51.176;4.452;2023-03-19T04:55:47;10.63;;;6.32;;
24685;SDS011;12804;51.176;4.452;2023-03-19T04:58:16;8.98;;;6.13;;
24685;SDS011;12804;51.176;4.452;2023-03-19T05:00:45;10.60;;;6.15;;
24685;SDS011;12804;51.176;4.452;2023-03-19T05:03:16;8.93;;;5.80;;
24685;SDS011;12804;51.176;4.452;2023-03-19T05:05:42;9.88;;;5.82;;
24685;SDS011;12804;51.176;4.452;2023-03-19T05:08:09;13.13;;;5.40;;
24685;SDS011;12804;51.176;4.452;2023-03-19T05:10:36;11.52;;;5.50;;
24685;SDS011;12804;51.176;4.452;2023-03-19T05:13:03;10.77;;;5.38;;
24685;SDS011;12804;51.176;4.452;2023-03-19T05:15:30;12.70;;;5.25;;
24685;SDS011;12804;51.176;4.452;2023-03-19T05:18:03;11.35;;;4.88;;
24685;SDS011;12804;51.176;4.452;2023-03-19T05:20:35;10.45;;;4.80;;
24685;SDS011;12804;51.176;4.452;2023-03-19T05:23:05;11.00;;;4.53;;
24685;SDS011;12804;51.176;4.452;2023-03-19T05:25:45;11.00;;;4.45;;
24685;SDS011;12804;51.176;4.452;2023-03-19T05:28:17;12.68;;;5.20;;
24685;SDS011;12804;51.176;4.452;2023-03-19T05:30:43;7.88;;;4.22;;
24685;SDS011;12804;51.176;4.452;2023-03-19T05:33:19;5.82;;;4.07;;
24685;SDS011;12804;51.176;4.452;2023-03-19T05:35:48;10.80;;;4.75;;
24685;SDS011;12804;51.176;4.452;2023-03-19T05:38:21;11.35;;;4.82;;
24685;SDS011;12804;51.176;4.452;2023-03-19T05:40:54;8.13;;;4.00;;
24685;SDS011;12804;51.176;4.452;2023-03-19T05:43:26;9.48;;;3.92;;
24685;SDS011;12804;51.176;4.452;2023-03-19T05:45:52;13.07;;;4.70;;
24685;SDS011;12804;51.176;4.452;2023-03-19T05:48:23;14.30;;;4.18;;
24685;SDS011;12804;51.176;4.452;2023-03-19T05:50:49;12.75;;;5.10;;
24685;SDS011;12804;51.176;4.452;2023-03-19T05:53:21;10.38;;;4.50;;
24685;SDS011;12804;51.176;4.452;2023-03-19T05:56:06;10.13;;;4.68;;
24685;SDS011;12804;51.176;4.452;2023-03-19T05:58:41;11.10;;;4.32;;
24685;SDS011;12804;51.176;4.452;2023-03-19T06:01:07;13.00;;;4.72;;
24685;SDS011;12804;51.176;4.452;2023-03-19T06:03:33;8.13;;;4.90;;
24685;SDS011;12804;51.176;4.452;2023-03-19T06:06:04;9.20;;;4.90;;
24685;SDS011;12804;51.176;4.452;2023-03-19T06:08:37;15.55;;;5.35;;
24685;SDS011;12804;51.176;4.452;2023-03-19T06:11:29;10.23;;;5.00;;
24685;SDS011;12804;51.176;4.452;2023-03-19T06:14:22;8.80;;;4.47;;
24685;SDS011;12804;51.176;4.452;2023-03-19T06:17:07;10.48;;;4.63;;
24685;SDS011;12804;51.176;4.452;2023-03-19T06:19:34;15.25;;;5.30;;
24685;SDS011;12804;51.176;4.452;2023-03-19T06:22:00;12.00;;;5.90;;
24685;SDS011;12804;51.176;4.452;2023-03-19T06:24:26;9.55;;;5.72;;
24685;SDS011;12804;51.176;4.452;2023-03-19T06:26:54;12.60;;;5.75;;
24685;SDS011;12804;51.176;4.452;2023-03-19T06:29:20;14.82;;;5.68;;
24685;SDS011;12804;51.176;4.452;2023-03-19T06:31:52;11.18;;;5.20;;
24685;SDS011;12804;51.176;4.452;2023-03-19T06:34:25;12.70;;;5.70;;
24685;SDS011;12804;51.176;4.452;2023-03-19T06:36:51;12.65;;;5.13;;
24685;SDS011;12804;51.176;4.452;2023-03-19T06:39:18;12.63;;;5.50;;
24685;SDS011;12804;51.176;4.452;2023-03-19T06:41:44;12.40;;;4.82;;
24685;SDS011;12804;51.176;4.452;2023-03-19T06:44:14;11.68;;;4.43;;
24685;SDS011;12804;51.176;4.452;2023-03-19T06:46:41;10.52;;;4.57;;
24685;SDS011;12804;51.176;4.452;2023-03-19T06:49:06;12.15;;;5.00;;
24685;SDS011;12804;51.176;4.452;2023-03-19T06:51:32;11.25;;;4.53;;
24685;SDS011;12804;51.176;4.452;2023-03-19T06:53:58;8.93;;;4.97;;
24685;SDS011;12804;51.176;4.452;2023-03-19T06:56:24;9.00;;;4.65;;
24685;SDS011;12804;51.176;4.452;2023-03-19T06:58:50;11.73;;;4.82;;
24685;SDS011;12804;51.176;4.452;2023-03-19T07:01:16;14.02;;;5.53;;
24685;SDS011;12804;51.176;4.452;2023-03-19T07:03:42;15.60;;;4.63;;
24685;SDS011;12804;51.176;4.452;2023-03-19T07:06:07;13.93;;;4.65;;
24685;SDS011;12804;51.176;4.452;2023-03-19T07:08:33;16.45;;;4.47;;
24685;SDS011;12804;51.176;4.452;2023-03-19T07:11:03;13.45;;;4.63;;
24685;SDS011;12804;51.176;4.452;2023-03-19T07:15:58;8.50;;;4.45;;
24685;SDS011;12804;51.176;4.452;2023-03-19T07:18:25;11.88;;;4.63;;
24685;SDS011;12804;51.176;4.452;2023-03-19T07:20:51;12.68;;;4.78;;
24685;SDS011;12804;51.176;4.452;2023-03-19T07:23:17;13.70;;;4.55;;
24685;SDS011;12804;51.176;4.452;2023-03-19T07:25:43;14.40;;;4.45;;
24685;SDS011;12804;51.176;4.452;2023-03-19T07:28:11;10.10;;;4.78;;
24685;SDS011;12804;51.176;4.452;2023-03-19T07:30:37;14.65;;;4.15;;
24685;SDS011;12804;51.176;4.452;2023-03-19T07:33:04;9.02;;;4.22;;
24685;SDS011;12804;51.176;4.452;2023-03-19T07:35:34;13.15;;;4.68;;
24685;SDS011;12804;51.176;4.452;2023-03-19T07:38:00;10.93;;;4.28;;
24685;SDS011;12804;51.176;4.452;2023-03-19T07:40:27;12.48;;;5.15;;
24685;SDS011;12804;51.176;4.452;2023-03-19T07:42:52;9.88;;;4.32;;
24685;SDS011;12804;51.176;4.452;2023-03-19T07:45:18;10.75;;;4.63;;
24685;SDS011;12804;51.176;4.452;2023-03-19T07:47:44;10.88;;;4.38;;
24685;SDS011;12804;51.176;4.452;2023-03-19T07:50:11;9.25;;;4.10;;
24685;SDS011;12804;51.176;4.452;2023-03-19T07:52:37;13.10;;;4.97;;
24685;SDS011;12804;51.176;4.452;2023-03-19T07:55:03;13.95;;;4.80;;
24685;SDS011;12804;51.176;4.452;2023-03-19T07:57:29;10.73;;;4.50;;
24685;SDS011;12804;51.176;4.452;2023-03-19T07:59:57;14.80;;;4.45;;
24685;SDS011;12804;51.176;4.452;2023-03-19T08:02:23;10.30;;;4.57;;
24685;SDS011;12804;51.176;4.452;2023-03-19T08:04:48;15.82;;;4.47;;
24685;SDS011;12804;51.176;4.452;2023-03-19T08:07:14;12.00;;;4.60;;
24685;SDS011;12804;51.176;4.452;2023-03-19T08:09:41;12.27;;;4.53;;
24685;SDS011;12804;51.176;4.452;2023-03-19T08:12:07;14.15;;;5.22;;
24685;SDS011;12804;51.176;4.452;2023-03-19T08:14:33;13.80;;;4.45;;
24685;SDS011;12804;51.176;4.452;2023-03-19T08:16:59;11.88;;;4.82;;
24685;SDS011;12804;51.176;4.452;2023-03-19T08:19:26;12.65;;;5.10;;
24685;SDS011;12804;51.176;4.452;2023-03-19T08:21:52;10.43;;;4.88;;
24685;SDS011;12804;51.176;4.452;2023-03-19T08:24:18;9.93;;;4.60;;
24685;SDS011;12804;51.176;4.452;2023-03-19T08:26:44;12.07;;;4.95;;
24685;SDS011;12804;51.176;4.452;2023-03-19T08:29:10;8.60;;;4.45;;
24685;SDS011;12804;51.176;4.452;2023-03-19T08:31:36;10.27;;;4.30;;
24685;SDS011;12804;51.176;4.452;2023-03-19T08:34:02;13.68;;;4.88;;
24685;SDS011;12804;51.176;4.452;2023-03-19T08:36:29;9.82;;;3.92;;
24685;SDS011;12804;51.176;4.452;2023-03-19T08:38:55;16.60;;;4.60;;
24685;SDS011;12804;51.176;4.452;2023-03-19T08:41:23;10.70;;;4.50;;
24685;SDS011;12804;51.176;4.452;2023-03-19T08:43:49;12.40;;;4.82;;
24685;SDS011;12804;51.176;4.452;2023-03-19T08:46:15;11.45;;;4.50;;
24685;SDS011;12804;51.176;4.452;2023-03-19T08:48:41;10.13;;;4.57;;
24685;SDS011;12804;51.176;4.452;2023-03-19T08:51:07;11.02;;;4.38;;
24685;SDS011;12804;51.176;4.452;2023-03-19T08:53:34;9.63;;;4.30;;
24685;SDS011;12804;51.176;4.452;2023-03-19T08:56:01;11.43;;;4.13;;
24685;SDS011;12804;51.176;4.452;2023-03-19T08:58:28;8.30;;;4.28;;
24685;SDS011;12804;51.176;4.452;2023-03-19T09:01:28;12.18;;;4.75;;
24685;SDS011;12804;51.176;4.452;2023-03-19T09:03:48;8.30;;;4.20;;
24685;SDS011;12804;51.176;4.452;2023-03-19T09:06:13;9.45;;;4.38;;
24685;SDS011;12804;51.176;4.452;2023-03-19T09:08:39;8.13;;;4.40;;
24685;SDS011;12804;51.176;4.452;2023-03-19T09:11:06;9.30;;;4.40;;
24685;SDS011;12804;51.176;4.452;2023-03-19T09:13:32;9.98;;;4.63;;
24685;SDS011;12804;51.176;4.452;2023-03-19T09:15:58;8.23;;;4.50;;
24685;SDS011;12804;51.176;4.452;2023-03-19T09:18:24;10.65;;;4.30;;
24685;SDS011;12804;51.176;4.452;2023-03-19T09:20:50;10.38;;;4.78;;
24685;SDS011;12804;51.176;4.452;2023-03-19T09:23:18;12.02;;;5.13;;
24685;SDS011;12804;51.176;4.452;2023-03-19T09:25:44;11.45;;;5.80;;
24685;SDS011;12804;51.176;4.452;2023-03-19T09:28:10;8.88;;;4.57;;
24685;SDS011;12804;51.176;4.452;2023-03-19T09:30:36;12.57;;;4.85;;
24685;SDS011;12804;51.176;4.452;2023-03-19T09:33:04;9.68;;;4.18;;
24685;SDS011;12804;51.176;4.452;2023-03-19T09:35:31;9.35;;;4.63;;
24685;SDS011;12804;51.176;4.452;2023-03-19T09:37:58;10.77;;;5.03;;
24685;SDS011;12804;51.176;4.452;2023-03-19T09:40:25;11.73;;;4.78;;
24685;SDS011;12804;51.176;4.452;2023-03-19T09:45:24;13.15;;;5.88;;
24685;SDS011;12804;51.176;4.452;2023-03-19T09:47:54;9.85;;;4.75;;
24685;SDS011;12804;51.176;4.452;2023-03-19T09:50:28;9.23;;;4.57;;
24685;SDS011;12804;51.176;4.452;2023-03-19T09:53:17;10.80;;;4.90;;
24685;SDS011;12804;51.176;4.452;2023-03-19T09:55:53;7.43;;;4.63;;
24685;SDS011;12804;51.176;4.452;2023-03-19T09:58:32;11.27;;;5.65;;
24685;SDS011;12804;51.176;4.452;2023-03-19T10:01:00;10.70;;;5.25;;
24685;SDS011;12804;51.176;4.452;2023-03-19T10:03:51;11.13;;;5.97;;
24685;SDS011;12804;51.176;4.452;2023-03-19T10:06:45;15.60;;;5.93;;
24685;SDS011;12804;51.176;4.452;2023-03-19T10:17:39;16.92;;;10.15;;
24685;SDS011;12804;51.176;4.452;2023-03-19T10:20:19;15.68;;;9.35;;
24685;SDS011;12804;51.176;4.452;2023-03-19T10:25:47;25.77;;;17.45;;
24685;SDS011;12804;51.176;4.452;2023-03-19T10:28:18;29.65;;;18.60;;
24685;SDS011;12804;51.176;4.452;2023-03-19T10:30:52;24.58;;;15.15;;
24685;SDS011;12804;51.176;4.452;2023-03-19T10:33:42;24.50;;;16.25;;
24685;SDS011;12804;51.176;4.452;2023-03-19T10:36:16;24.95;;;16.55;;
24685;SDS011;12804;51.176;4.452;2023-03-19T10:38:46;21.55;;;16.42;;
24685;SDS011;12804;51.176;4.452;2023-03-19T10:41:30;24.13;;;17.13;;
24685;SDS011;12804;51.176;4.452;2023-03-19T10:44:15;27.52;;;18.38;;
24685;SDS011;12804;51.176;4.452;2023-03-19T10:47:03;27.45;;;18.90;;
24685;SDS011;12804;51.176;4.452;2023-03-19T10:49:35;27.35;;;18.95;;
24685;SDS011;12804;51.176;4.452;2023-03-19T10:52:01;30.48;;;19.02;;
24685;SDS011;12804;51.176;4.452;2023-03-19T10:54:28;25.48;;;18.05;;
24685;SDS011;12804;51.176;4.452;2023-03-19T10:56:55;24.83;;;18.42;;
24685;SDS011;12804;51.176;4.452;2023-03-19T11:01:55;24.63;;;17.35;;
24685;SDS011;12804;51.176;4.452;2023-03-19T11:04:23;26.38;;;18.60;;
24685;SDS011;12804;51.176;4.452;2023-03-19T11:07:09;25.23;;;18.05;;
24685;SDS011;12804;51.176;4.452;2023-03-19T11:09:39;26.65;;;18.65;;
24685;SDS011;12804;51.176;4.452;2023-03-19T11:14:45;30.20;;;18.52;;
24685;SDS011;12804;51.176;4.452;2023-03-19T11:17:26;22.70;;;16.42;;
24685;SDS011;12804;51.176;4.452;2023-03-19T11:22:51;20.10;;;13.60;;
24685;SDS011;12804;51.176;4.452;2023-03-19T11:25:23;20.38;;;14.63;;
24685;SDS011;12804;51.176;4.452;2023-03-19T11:30:27;16.42;;;12.30;;
24685;SDS011;12804;51.176;4.452;2023-03-19T11:36:14;15.98;;;11.43;;
24685;SDS011;12804;51.176;4.452;2023-03-19T11:38:53;19.45;;;11.75;;
24685;SDS011;12804;51.176;4.452;2023-03-19T11:44:22;14.52;;;10.48;;
24685;SDS011;12804;51.176;4.452;2023-03-19T11:49:36;14.90;;;8.80;;
24685;SDS011;12804;51.176;4.452;2023-03-19T11:52:34;14.13;;;8.80;;
24685;SDS011;12804;51.176;4.452;2023-03-19T11:55:21;17.95;;;10.10;;
24685;SDS011;12804;51.176;4.452;2023-03-19T12:00:47;20.60;;;13.90;;
24685;SDS011;12804;51.176;4.452;2023-03-19T12:09:14;17.67;;;10.52;;
24685;SDS011;12804;51.176;4.452;2023-03-19T12:12:16;18.73;;;10.35;;
24685;SDS011;12804;51.176;4.452;2023-03-19T12:17:25;19.65;;;13.13;;
24685;SDS011;12804;51.176;4.452;2023-03-19T12:23:12;22.70;;;13.27;;
24685;SDS011;12804;51.176;4.452;2023-03-19T12:26:04;21.67;;;14.15;;
24685;SDS011;12804;51.176;4.452;2023-03-19T12:31:33;17.58;;;12.30;;
24685;SDS011;12804;51.176;4.452;2023-03-19T12:37:25;10.50;;;8.43;;
24685;SDS011;12804;51.176;4.452;2023-03-19T12:40:05;11.05;;;7.75;;
24685;SDS011;12804;51.176;4.452;2023-03-19T12:43:04;13.35;;;8.80;;
24685;SDS011;12804;51.176;4.452;2023-03-19T12:45:41;11.63;;;8.18;;
24685;SDS011;12804;51.176;4.452;2023-03-19T12:48:16;13.13;;;8.43;;
24685;SDS011;12804;51.176;4.452;2023-03-19T12:53:16;11.82;;;7.57;;
24685;SDS011;12804;51.176;4.452;2023-03-19T12:55:48;12.35;;;7.50;;
24685;SDS011;12804;51.176;4.452;2023-03-19T13:01:07;14.55;;;9.98;;
24685;SDS011;12804;51.176;4.452;2023-03-19T13:06:50;16.65;;;12.07;;
24685;SDS011;12804;51.176;4.452;2023-03-19T13:09:27;18.83;;;12.68;;
24685;SDS011;12804;51.176;4.452;2023-03-19T13:12:06;18.83;;;11.60;;
24685;SDS011;12804;51.176;4.452;2023-03-19T13:14:41;17.10;;;11.38;;
24685;SDS011;12804;51.176;4.452;2023-03-19T13:20:27;14.48;;;9.45;;
24685;SDS011;12804;51.176;4.452;2023-03-19T13:23:08;10.45;;;8.30;;
24685;SDS011;12804;51.176;4.452;2023-03-19T13:25:41;10.35;;;7.30;;
24685;SDS011;12804;51.176;4.452;2023-03-19T13:28:10;8.80;;;7.10;;
24685;SDS011;12804;51.176;4.452;2023-03-19T13:30:36;9.05;;;6.80;;
24685;SDS011;12804;51.176;4.452;2023-03-19T13:33:05;7.78;;;6.25;;
24685;SDS011;12804;51.176;4.452;2023-03-19T13:40:43;12.90;;;10.52;;
24685;SDS011;12804;51.176;4.452;2023-03-19T13:43:56;13.40;;;9.40;;
24685;SDS011;12804;51.176;4.452;2023-03-19T13:46:08;12.95;;;9.23;;
24685;SDS011;12804;51.176;4.452;2023-03-19T13:51:59;16.02;;;11.55;;
24685;SDS011;12804;51.176;4.452;2023-03-19T13:54:35;13.70;;;10.75;;
24685;SDS011;12804;51.176;4.452;2023-03-19T13:57:05;11.32;;;8.88;;
24685;SDS011;12804;51.176;4.452;2023-03-19T13:59:47;12.85;;;8.73;;
24685;SDS011;12804;51.176;4.452;2023-03-19T14:04:50;13.00;;;9.32;;
24685;SDS011;12804;51.176;4.452;2023-03-19T14:07:29;17.52;;;13.57;;
24685;SDS011;12804;51.176;4.452;2023-03-19T14:10:05;13.30;;;11.85;;
24685;SDS011;12804;51.176;4.452;2023-03-19T14:12:38;13.02;;;11.60;;
24685;SDS011;12804;51.176;4.452;2023-03-19T14:17:36;10.95;;;9.63;;
24685;SDS011;12804;51.176;4.452;2023-03-19T14:20:25;13.60;;;9.57;;
24685;SDS011;12804;51.176;4.452;2023-03-19T14:31:27;11.25;;;8.95;;
24685;SDS011;12804;51.176;4.452;2023-03-19T14:34:33;10.10;;;7.80;;
24685;SDS011;12804;51.176;4.452;2023-03-19T14:37:07;10.32;;;6.93;;
24685;SDS011;12804;51.176;4.452;2023-03-19T14:40:31;8.82;;;5.93;;
24685;SDS011;12804;51.176;4.452;2023-03-19T14:42:38;11.18;;;6.13;;
24685;SDS011;12804;51.176;4.452;2023-03-19T14:53:48;8.73;;;5.38;;
24685;SDS011;12804;51.176;4.452;2023-03-19T14:56:30;9.50;;;5.53;;
24685;SDS011;12804;51.176;4.452;2023-03-19T14:58:58;6.63;;;5.43;;
24685;SDS011;12804;51.176;4.452;2023-03-19T15:01:27;9.15;;;5.22;;
24685;SDS011;12804;51.176;4.452;2023-03-19T15:03:57;7.45;;;5.18;;
24685;SDS011;12804;51.176;4.452;2023-03-19T15:06:33;9.43;;;5.38;;
24685;SDS011;12804;51.176;4.452;2023-03-19T15:09:01;6.55;;;4.70;;
24685;SDS011;12804;51.176;4.452;2023-03-19T15:12:19;7.82;;;5.45;;
24685;SDS011;12804;51.176;4.452;2023-03-19T15:14:41;7.13;;;5.18;;
24685;SDS011;12804;51.176;4.452;2023-03-19T15:17:28;9.70;;;5.50;;
24685;SDS011;12804;51.176;4.452;2023-03-19T15:19:57;7.93;;;5.25;;
24685;SDS011;12804;51.176;4.452;2023-03-19T15:22:26;7.32;;;5.88;;
24685;SDS011;12804;51.176;4.452;2023-03-19T15:25:05;8.93;;;6.20;;
24685;SDS011;12804;51.176;4.452;2023-03-19T15:27:32;8.75;;;5.68;;
24685;SDS011;12804;51.176;4.452;2023-03-19T15:29:58;9.45;;;6.82;;
24685;SDS011;12804;51.176;4.452;2023-03-19T15:32:34;8.02;;;6.05;;
24685;SDS011;12804;51.176;4.452;2023-03-19T15:35:02;6.32;;;5.65;;
24685;SDS011;12804;51.176;4.452;2023-03-19T15:37:30;7.25;;;5.78;;
24685;SDS011;12804;51.176;4.452;2023-03-19T15:40:01;9.45;;;6.47;;
24685;SDS011;12804;51.176;4.452;2023-03-19T15:42:35;8.75;;;5.82;;
24685;SDS011;12804;51.176;4.452;2023-03-19T15:45:06;9.00;;;5.68;;
24685;SDS011;12804;51.176;4.452;2023-03-19T15:47:35;8.80;;;5.97;;
24685;SDS011;12804;51.176;4.452;2023-03-19T15:50:17;9.82;;;6.10;;
24685;SDS011;12804;51.176;4.452;2023-03-19T15:52:49;10.35;;;6.10;;
24685;SDS011;12804;51.176;4.452;2023-03-19T15:55:18;8.98;;;5.63;;
24685;SDS011;12804;51.176;4.452;2023-03-19T15:57:45;10.13;;;6.25;;
24685;SDS011;12804;51.176;4.452;2023-03-19T16:00:12;10.05;;;6.50;;
24685;SDS011;12804;51.176;4.452;2023-03-19T16:02:40;12.07;;;6.10;;
24685;SDS011;12804;51.176;4.452;2023-03-19T16:05:24;10.90;;;6.65;;
24685;SDS011;12804;51.176;4.452;2023-03-19T16:07:58;9.25;;;6.15;;
24685;SDS011;12804;51.176;4.452;2023-03-19T16:13:00;11.65;;;6.97;;
24685;SDS011;12804;51.176;4.452;2023-03-19T16:15:34;10.38;;;6.25;;
24685;SDS011;12804;51.176;4.452;2023-03-19T16:20:47;9.55;;;6.03;;
24685;SDS011;12804;51.176;4.452;2023-03-19T16:23:28;9.65;;;5.82;;
24685;SDS011;12804;51.176;4.452;2023-03-19T16:26:03;9.65;;;6.32;;
24685;SDS011;12804;51.176;4.452;2023-03-19T16:28:40;9.30;;;6.35;;
24685;SDS011;12804;51.176;4.452;2023-03-19T16:34:18;9.20;;;6.00;;
24685;SDS011;12804;51.176;4.452;2023-03-19T16:36:54;11.43;;;5.78;;
24685;SDS011;12804;51.176;4.452;2023-03-19T16:44:33;8.43;;;5.53;;
24685;SDS011;12804;51.176;4.452;2023-03-19T16:47:07;9.32;;;5.50;;
24685;SDS011;12804;51.176;4.452;2023-03-19T16:49:37;7.43;;;5.20;;
24685;SDS011;12804;51.176;4.452;2023-03-19T16:52:03;10.07;;;5.28;;
24685;SDS011;12804;51.176;4.452;2023-03-19T16:54:29;8.93;;;4.65;;
24685;SDS011;12804;51.176;4.452;2023-03-19T16:56:55;6.00;;;4.68;;
24685;SDS011;12804;51.176;4.452;2023-03-19T16:59:25;6.93;;;4.93;;